This is the latest recevied weather packets stored in our database for station/object DG2YCM-10. If no packets are shown the sender has not sent any weather packets the latest 10 day(s).
| Time | Temp. | Humidity | Pressure | Rain* | Wind** | Luminosity | Snow |
|---|---|---|---|---|---|---|---|
| 1778088595 | 13.89° C | 84% | 1002.6 hPa | - | - | - | - |
| 1778085055 | 14.44° C | 83% | 1002.1 hPa | - | - | - | - |
| 1778081515 | 15° C | 86% | 1002.1 hPa | - | - | - | - |
| 1778077975 | 15.56° C | 88% | 1001.6 hPa | - | - | - | - |
| 1778074435 | 15.56° C | 93% | 1001.3 hPa | - | - | - | - |
| 1778070895 | 14.44° C | 100% | 1001.2 hPa | - | - | - | - |
| 1778067355 | 15.56° C | 91% | 1000.7 hPa | - | - | - | - |
| 1778063814 | 13.89° C | 99% | 1001 hPa | - | - | - | - |
| 1778060274 | 13.89° C | 99% | 1000.7 hPa | - | - | - | - |
| 1778056734 | 13.33° C | 100% | 1000.4 hPa | - | - | - | - |
| 1778053193 | 12.78° C | 100% | 1000.4 hPa | - | - | - | - |
| 1778038223 | 11.67° C | 100% | 1000.6 hPa | - | - | - | - |
| 1778034683 | 12.22° C | 100% | 1000.7 hPa | - | - | - | - |
| 1778031142 | 12.78° C | 100% | 1000.9 hPa | - | - | - | - |
| 1778027602 | 13.33° C | 100% | 1001.2 hPa | - | - | - | - |
| 1778024062 | 13.33° C | 100% | 1001.6 hPa | - | - | - | - |
| 1778020522 | 13.89° C | 100% | 1001.8 hPa | - | - | - | - |
| 1778017012 | 13.89° C | 100% | 1002 hPa | - | - | - | - |
| 1778016981 | 13.89° C | 100% | 1002 hPa | - | - | - | - |
| 1778013440 | 14.44° C | 100% | 1001.9 hPa | - | - | - | - |
| 1778009900 | 14.44° C | 100% | 1001.7 hPa | - | - | - | - |
| 1778006359 | 15° C | 100% | 1001.4 hPa | - | - | - | - |
| 1778002819 | 15.56° C | 100% | 1001.5 hPa | - | - | - | - |
| 1777999279 | 15.56° C | 96% | 1001.7 hPa | - | - | - | - |
| 1777995739 | 15.56° C | 97% | 1001.9 hPa | - | - | - | - |
* Rain since midnight (hover to see other rain measurements)
** Current wind speed in m/s (hover to see current wind gust speed)